Time;durP1;ratioP1;P1;durP2;ratioP2;P2;SDS_P1;SDS_P2;PMS_P1;PMS_P2;Temp;Humidity;BMP_temperature;BMP_pressure;BME280_temperature;BME280_humidity;BME280_pressure;Samples;Min_cycle;Max_cycle;Signal;HPM_P1;HPM_P2
2023/12/29 00:22:12;;;;;;;7.33;3.67;;;11.30;81.90;;;;;;6148025;22;1218141;-78
2023/12/29 00:24:41;;;;;;;7.13;3.87;;;11.30;81.90;;;;;;6236788;23;20191;-78
2023/12/29 00:27:11;;;;;;;7.27;3.60;;;11.30;81.90;;;;;;6200001;23;20433;-79
2023/12/29 00:29:39;;;;;;;7.33;3.90;;;11.30;81.90;;;;;;6199642;23;20446;-79
2023/12/29 00:32:08;;;;;;;10.00;3.77;;;11.20;82.00;;;;;;6124732;23;20441;-79
2023/12/29 00:34:37;;;;;;;7.33;4.57;;;11.30;82.00;;;;;;6110905;23;20417;-79
2023/12/29 00:37:05;;;;;;;7.93;4.60;;;11.20;82.00;;;;;;6111547;23;20418;-79
2023/12/29 00:39:38;;;;;;;7.10;4.47;;;11.20;82.00;;;;;;6112397;23;20508;-79
2023/12/29 00:42:07;;;;;;;6.90;4.20;;;11.30;82.00;;;;;;6113448;23;20468;-79
2023/12/29 00:44:36;;;;;;;6.60;3.83;;;11.30;82.00;;;;;;6111413;23;20414;-79
2023/12/29 00:47:04;;;;;;;10.60;4.20;;;11.30;82.00;;;;;;6147456;23;20413;-79
2023/12/29 00:49:32;;;;;;;8.27;4.33;;;11.30;81.90;;;;;;6143641;23;20441;-78
2023/12/29 00:52:02;;;;;;;7.43;4.20;;;11.30;81.90;;;;;;6106177;23;20432;-78
2023/12/29 00:54:30;;;;;;;9.40;4.60;;;11.30;81.90;;;;;;6107516;23;20512;-78
2023/12/29 00:57:07;;;;;;;7.50;4.10;;;11.30;81.90;;;;;;6140496;23;20414;-78
2023/12/29 00:59:38;;;;;;;6.90;4.10;;;11.30;81.80;;;;;;6104412;23;20425;-78
2023/12/29 01:02:06;;;;;;;6.23;3.50;;;11.30;81.80;;;;;;6127716;23;20464;-78
2023/12/29 01:04:34;;;;;;;7.13;3.87;;;11.30;81.80;;;;;;6132114;23;20971;-78
2023/12/29 01:07:03;;;;;;;6.97;3.90;;;11.30;81.80;;;;;;6135369;23;20556;-78
2023/12/29 01:09:31;;;;;;;10.90;3.97;;;11.30;81.70;;;;;;6141329;23;20421;-78
2023/12/29 01:11:59;;;;;;;6.47;3.60;;;11.30;81.70;;;;;;6176364;23;20409;-79
2023/12/29 01:14:28;;;;;;;8.13;3.80;;;11.30;81.80;;;;;;6176923;23;20409;-78
2023/12/29 01:16:56;;;;;;;6.30;3.30;;;11.30;81.80;;;;;;6139798;23;20995;-78
2023/12/29 01:19:32;;;;;;;5.93;3.07;;;11.30;81.70;;;;;;6140521;23;20882;-78
2023/12/29 01:22:00;;;;;;;6.50;3.50;;;11.30;81.70;;;;;;6134936;23;20481;-79
2023/12/29 01:24:28;;;;;;;6.37;3.73;;;11.20;81.70;;;;;;6135438;23;20433;-78
2023/12/29 01:27:09;;;;;;;8.37;4.10;;;11.30;81.80;;;;;;6146638;23;20394;-78
2023/12/29 01:29:38;;;;;;;8.23;3.70;;;11.30;81.80;;;;;;6135933;23;20422;-78
2023/12/29 01:32:08;;;;;;;10.60;3.50;;;11.30;81.70;;;;;;6109723;23;20442;-78
2023/12/29 01:34:36;;;;;;;6.07;3.30;;;11.30;81.70;;;;;;6105950;23;20442;-78
2023/12/29 01:37:05;;;;;;;5.50;3.30;;;11.30;81.60;;;;;;6105759;23;20462;-79
2023/12/29 01:39:34;;;;;;;5.97;2.90;;;11.30;81.60;;;;;;6105264;23;20423;-78
2023/12/29 01:42:02;;;;;;;5.57;2.60;;;11.30;81.60;;;;;;6113589;23;20466;-78
2023/12/29 01:44:30;;;;;;;5.40;3.00;;;11.30;81.60;;;;;;6100516;23;20866;-78
2023/12/29 01:47:01;;;;;;;5.50;2.73;;;11.30;81.50;;;;;;6100543;23;20494;-78
2023/12/29 01:49:29;;;;;;;6.10;2.20;;;11.30;81.50;;;;;;6111469;23;20483;-79
2023/12/29 01:52:02;;;;;;;5.10;2.20;;;11.30;81.50;;;;;;6098404;23;20454;-78
2023/12/29 01:54:38;;;;;;;4.90;2.57;;;11.30;81.40;;;;;;6109919;23;20387;-78
2023/12/29 01:57:08;;;;;;;5.20;2.27;;;11.30;81.30;;;;;;6107119;23;20475;-78
2023/12/29 01:59:38;;;;;;;4.90;2.57;;;11.30;81.20;;;;;;6106320;23;20521;-79
2023/12/29 02:02:08;;;;;;;5.60;2.10;;;11.30;81.30;;;;;;6128386;23;20481;-78
2023/12/29 02:04:38;;;;;;;4.50;2.03;;;11.20;81.20;;;;;;6135912;23;20476;-78
2023/12/29 02:07:06;;;;;;;5.10;2.50;;;11.30;81.20;;;;;;6136020;23;20490;-78
2023/12/29 02:09:35;;;;;;;5.40;2.13;;;11.20;81.10;;;;;;6135581;23;20445;-78
2023/12/29 02:12:03;;;;;;;4.47;2.13;;;11.20;81.00;;;;;;6135876;23;20450;-78
2023/12/29 02:14:32;;;;;;;5.23;2.27;;;11.20;81.00;;;;;;6135753;23;20421;-78
2023/12/29 02:17:06;;;;;;;5.00;2.47;;;11.30;80.90;;;;;;6135415;23;20436;-79
2023/12/29 02:19:44;;;;;;;5.27;2.50;;;11.30;80.90;;;;;;6135929;23;20406;-79
2023/12/29 02:22:13;;;;;;;5.03;2.43;;;11.30;80.80;;;;;;6159087;23;20445;-78
2023/12/29 02:24:46;;;;;;;5.00;2.50;;;11.30;80.70;;;;;;6140553;23;20864;-79
2023/12/29 02:27:26;;;;;;;4.90;2.70;;;11.30;80.70;;;;;;6141429;23;20425;-78
2023/12/29 02:30:08;;;;;;;5.73;2.57;;;11.20;80.70;;;;;;6178043;23;20424;-79
2023/12/29 02:32:39;;;;;;;6.93;2.67;;;11.20;80.60;;;;;;6141898;23;20464;-79
2023/12/29 02:35:10;;;;;;;5.90;3.13;;;11.20;80.60;;;;;;6179024;23;20421;-79
2023/12/29 02:37:40;;;;;;;5.80;3.13;;;11.20;80.60;;;;;;6179477;23;20827;-79
2023/12/29 02:40:11;;;;;;;4.90;2.37;;;11.20;80.60;;;;;;6142702;23;20495;-79
2023/12/29 02:42:39;;;;;;;7.70;3.23;;;11.20;80.70;;;;;;6179068;23;20431;-79
2023/12/29 02:45:10;;;;;;;6.80;3.10;;;11.20;80.60;;;;;;6179054;23;20405;-78
2023/12/29 02:47:39;;;;;;;6.50;3.33;;;11.20;80.60;;;;;;6179218;23;20835;-79
2023/12/29 02:50:07;;;;;;;7.90;2.97;;;11.20;80.60;;;;;;6143373;23;20421;-80
2023/12/29 02:52:35;;;;;;;5.53;3.13;;;11.20;80.60;;;;;;6142942;23;20471;-79
2023/12/29 02:55:04;;;;;;;6.80;3.37;;;11.20;80.60;;;;;;6143411;23;20425;-78
2023/12/29 02:57:33;;;;;;;6.70;3.80;;;11.20;80.60;;;;;;6174900;23;20911;-79
2023/12/29 03:00:01;;;;;;;6.47;3.67;;;11.20;80.60;;;;;;6173788;23;20412;-79
2023/12/29 03:02:29;;;;;;;7.20;3.70;;;11.20;80.60;;;;;;6133043;23;20472;-79
2023/12/29 03:04:57;;;;;;;7.37;4.37;;;11.20;80.60;;;;;;6142407;23;20408;-79
2023/12/29 03:07:25;;;;;;;12.53;4.80;;;11.20;80.60;;;;;;6180435;23;20440;-79
2023/12/29 03:09:53;;;;;;;7.10;4.20;;;11.30;80.50;;;;;;6144295;23;20523;-79
2023/12/29 03:12:21;;;;;;;7.23;4.80;;;11.30;80.50;;;;;;6144480;23;20527;-79
2023/12/29 03:14:51;;;;;;;6.40;4.30;;;11.30;80.60;;;;;;6144000;23;20443;-78
2023/12/29 03:17:19;;;;;;;6.60;4.10;;;11.20;80.50;;;;;;6144477;23;20825;-78
2023/12/29 03:19:47;;;;;;;10.17;4.30;;;11.20;80.50;;;;;;6144931;23;21044;-79
2023/12/29 03:22:15;;;;;;;9.30;4.70;;;11.20;80.50;;;;;;6144765;23;20451;-78
2023/12/29 03:24:44;;;;;;;8.70;4.57;;;11.20;80.60;;;;;;6145289;23;20752;-78
2023/12/29 03:27:12;;;;;;;6.60;4.13;;;11.30;80.50;;;;;;6181230;23;20867;-79
2023/12/29 03:29:40;;;;;;;6.67;4.27;;;11.30;80.30;;;;;;6145268;23;20488;-79
2023/12/29 03:32:09;;;;;;;9.50;4.27;;;11.20;80.30;;;;;;6143880;23;20441;-79
2023/12/29 03:34:38;;;;;;;6.60;4.03;;;11.20;80.50;;;;;;6145136;23;20428;-79
2023/12/29 03:37:06;;;;;;;11.07;4.27;;;11.20;80.40;;;;;;6145227;23;20416;-79
2023/12/29 03:39:35;;;;;;;6.00;3.57;;;11.20;80.40;;;;;;6145560;23;20425;-79
2023/12/29 03:42:04;;;;;;;6.80;3.37;;;11.20;80.40;;;;;;6145592;23;20413;-78
2023/12/29 03:44:32;;;;;;;5.17;2.83;;;11.20;80.40;;;;;;6145813;23;20895;-79
2023/12/29 03:47:00;;;;;;;5.80;2.93;;;11.20;80.40;;;;;;6180817;23;20419;-79
2023/12/29 03:49:30;;;;;;;7.87;3.30;;;11.10;80.30;;;;;;6132855;23;20417;-79
2023/12/29 03:51:58;;;;;;;8.73;3.33;;;11.20;80.30;;;;;;6174878;23;20412;-79
2023/12/29 03:54:26;;;;;;;6.30;2.90;;;11.10;80.20;;;;;;6146926;23;20413;-79
2023/12/29 03:56:54;;;;;;;5.63;2.80;;;11.10;80.20;;;;;;6145135;23;20489;-79
2023/12/29 03:59:23;;;;;;;5.47;2.87;;;11.10;80.10;;;;;;6146634;23;20481;-79
2023/12/29 04:01:51;;;;;;;6.30;3.20;;;11.10;80.10;;;;;;6145635;23;20445;-79
2023/12/29 04:04:20;;;;;;;4.60;2.70;;;11.10;80.00;;;;;;6145964;23;20429;-78
2023/12/29 04:06:49;;;;;;;6.33;2.47;;;11.10;80.00;;;;;;6182212;23;20428;-79
2023/12/29 04:09:17;;;;;;;5.80;2.93;;;11.00;80.00;;;;;;6146952;23;20417;-79
2023/12/29 04:11:44;;;;;;;5.60;2.80;;;11.00;79.90;;;;;;6146811;23;20436;-79
2023/12/29 04:14:13;;;;;;;5.50;2.60;;;11.00;79.80;;;;;;6147183;23;20444;-79
2023/12/29 04:16:41;;;;;;;6.40;3.00;;;11.00;79.80;;;;;;6147142;23;20449;-79
2023/12/29 04:19:09;;;;;;;5.70;2.73;;;11.00;79.70;;;;;;6146709;23;20439;-79
2023/12/29 04:21:40;;;;;;;6.20;3.00;;;11.00;79.60;;;;;;6147019;23;20449;-78
2023/12/29 04:24:09;;;;;;;5.13;2.60;;;11.00;79.50;;;;;;6147673;23;20472;-79
2023/12/29 04:26:37;;;;;;;8.63;2.47;;;11.00;79.50;;;;;;6147056;23;20440;-79
2023/12/29 04:29:06;;;;;;;6.00;2.37;;;11.00;79.30;;;;;;6147188;23;20484;-80
2023/12/29 04:31:34;;;;;;;6.20;2.97;;;11.00;79.30;;;;;;6176635;23;20473;-79
2023/12/29 04:34:02;;;;;;;5.90;2.70;;;11.00;79.30;;;;;;6148026;23;20409;-79
2023/12/29 04:36:30;;;;;;;5.50;2.70;;;11.00;79.20;;;;;;6148545;23;20430;-79
2023/12/29 04:38:58;;;;;;;9.00;2.87;;;11.00;79.10;;;;;;6184844;23;20411;-79
2023/12/29 04:41:28;;;;;;;5.03;2.30;;;11.00;79.00;;;;;;6148935;23;20641;-78
2023/12/29 04:43:56;;;;;;;5.47;2.50;;;11.00;78.80;;;;;;6145818;23;20476;-79
2023/12/29 04:46:24;;;;;;;6.40;2.50;;;10.90;78.80;;;;;;6141855;23;20503;-79
2023/12/29 04:48:53;;;;;;;9.20;2.43;;;10.90;78.70;;;;;;6141594;23;20493;-79
2023/12/29 04:51:21;;;;;;;5.10;2.17;;;10.90;78.60;;;;;;6179891;23;20405;-78
2023/12/29 04:53:49;;;;;;;7.57;2.83;;;10.90;78.60;;;;;;6142746;23;20449;-78
2023/12/29 04:56:24;;;;;;;7.77;2.50;;;10.90;78.50;;;;;;6178879;23;20412;-79
2023/12/29 04:58:53;;;;;;;6.57;2.60;;;10.90;78.50;;;;;;6141162;23;20468;-78
2023/12/29 05:01:21;;;;;;;6.07;2.57;;;10.80;78.40;;;;;;6139337;23;20945;-78
2023/12/29 05:03:49;;;;;;;5.33;2.53;;;10.80;78.30;;;;;;6140940;23;20433;-78
2023/12/29 05:06:17;;;;;;;5.33;2.60;;;10.80;78.30;;;;;;6139338;23;21010;-78
2023/12/29 05:08:45;;;;;;;5.70;2.67;;;10.80;78.20;;;;;;6139899;23;20515;-78
2023/12/29 05:11:13;;;;;;;6.90;2.80;;;10.80;78.20;;;;;;6139088;23;20480;-78
2023/12/29 05:13:41;;;;;;;5.97;2.70;;;10.80;78.10;;;;;;6139232;23;20428;-78
2023/12/29 05:16:11;;;;;;;8.57;3.50;;;10.80;78.20;;;;;;6139732;23;20413;-78
2023/12/29 05:18:39;;;;;;;5.80;2.63;;;10.70;78.20;;;;;;6175448;23;20429;-79
2023/12/29 05:21:15;;;;;;;5.80;2.70;;;10.70;78.10;;;;;;6138404;23;20421;-78
2023/12/29 05:23:44;;;;;;;5.93;2.83;;;10.70;78.10;;;;;;6136780;23;20413;-78
2023/12/29 05:26:13;;;;;;;6.20;2.80;;;10.70;78.10;;;;;;6134170;23;20513;-78
2023/12/29 05:28:41;;;;;;;4.67;2.30;;;10.70;78.10;;;;;;6179513;23;20477;-78
2023/12/29 05:31:10;;;;;;;7.37;2.60;;;10.80;78.10;;;;;;6142439;23;20449;-79
2023/12/29 05:33:38;;;;;;;5.70;2.90;;;10.70;78.00;;;;;;6143925;23;20417;-78
2023/12/29 05:36:08;;;;;;;13.60;3.03;;;10.70;78.00;;;;;;6142907;23;20425;-78
2023/12/29 05:38:36;;;;;;;6.10;3.10;;;10.70;78.00;;;;;;6143625;23;20425;-78
2023/12/29 05:41:05;;;;;;;5.53;3.10;;;10.70;77.90;;;;;;6141672;23;20835;-79
2023/12/29 05:43:34;;;;;;;7.37;3.60;;;10.70;77.90;;;;;;6143167;23;20850;-79
2023/12/29 05:46:02;;;;;;;6.90;3.63;;;10.70;77.90;;;;;;6143928;23;20508;-78
2023/12/29 05:48:31;;;;;;;6.40;3.57;;;10.70;77.90;;;;;;6144744;23;20440;-79
2023/12/29 05:50:59;;;;;;;8.30;3.23;;;10.70;77.90;;;;;;6139978;23;20424;-78
2023/12/29 05:53:27;;;;;;;6.07;3.10;;;10.60;77.90;;;;;;6140792;23;20435;-79
2023/12/29 05:55:55;;;;;;;5.90;3.50;;;10.60;77.90;;;;;;6181260;23;21059;-79
2023/12/29 05:58:23;;;;;;;6.10;2.90;;;10.60;77.90;;;;;;6145122;23;21003;-79
2023/12/29 06:00:51;;;;;;;6.43;3.43;;;10.60;77.90;;;;;;6142252;23;20441;-78
2023/12/29 06:03:21;;;;;;;7.87;3.27;;;10.60;78.00;;;;;;6179376;23;20428;-79
2023/12/29 06:05:51;;;;;;;7.10;3.67;;;10.50;78.00;;;;;;6177738;23;20518;-79
2023/12/29 06:08:19;;;;;;;5.83;3.10;;;10.50;78.00;;;;;;6176627;23;20444;-79
2023/12/29 06:10:47;;;;;;;6.40;3.10;;;10.50;78.00;;;;;;6174656;23;20497;-79
2023/12/29 06:13:16;;;;;;;6.63;2.67;;;10.50;78.00;;;;;;6136700;23;20437;-78
2023/12/29 06:15:44;;;;;;;7.20;3.20;;;10.50;78.10;;;;;;6139263;23;20413;-78
2023/12/29 06:18:12;;;;;;;9.53;3.30;;;10.50;78.00;;;;;;6144746;23;20432;-79
2023/12/29 06:20:41;;;;;;;7.77;3.57;;;10.50;77.90;;;;;;6145449;23;20429;-79
2023/12/29 06:23:10;;;;;;;6.10;3.23;;;10.50;77.90;;;;;;6144452;23;20460;-79
2023/12/29 06:25:41;;;;;;;5.50;2.80;;;10.50;77.90;;;;;;6144408;23;20815;-79
2023/12/29 06:28:09;;;;;;;11.57;3.40;;;10.50;78.00;;;;;;6145489;23;20493;-79
2023/12/29 06:30:37;;;;;;;5.40;3.27;;;10.50;78.00;;;;;;6143673;23;20444;-79
2023/12/29 06:33:06;;;;;;;9.47;3.67;;;10.50;78.00;;;;;;6180716;23;20401;-78
2023/12/29 06:35:34;;;;;;;7.20;3.23;;;10.50;78.10;;;;;;6147042;23;20409;-79
2023/12/29 06:38:02;;;;;;;5.30;2.83;;;10.50;78.10;;;;;;6182572;23;20802;-78
2023/12/29 06:40:31;;;;;;;8.87;3.47;;;10.50;78.10;;;;;;6146235;23;20417;-79
2023/12/29 06:42:59;;;;;;;5.93;3.03;;;10.50;78.10;;;;;;6182122;23;20433;-78
2023/12/29 06:45:28;;;;;;;5.40;2.80;;;10.50;78.20;;;;;;6144461;23;20448;-79
2023/12/29 06:47:56;;;;;;;9.10;3.17;;;10.50;78.20;;;;;;6181596;23;20487;-78
2023/12/29 06:50:25;;;;;;;5.80;3.07;;;10.50;78.20;;;;;;6182331;23;20405;-79
2023/12/29 06:52:53;;;;;;;9.87;3.03;;;10.60;78.20;;;;;;6144785;23;20484;-78
2023/12/29 06:55:23;;;;;;;5.10;2.97;;;10.60;78.20;;;;;;6177662;23;20484;-78
2023/12/29 06:57:52;;;;;;;5.40;2.80;;;10.60;78.20;;;;;;6174843;23;20389;-79
2023/12/29 07:00:23;;;;;;;8.40;3.67;;;10.60;78.20;;;;;;6180035;23;20817;-79
2023/12/29 07:02:53;;;;;;;9.23;2.77;;;10.60;78.20;;;;;;6143844;23;20417;-79
2023/12/29 07:05:21;;;;;;;5.63;3.07;;;10.60;78.20;;;;;;6181071;23;20433;-79
2023/12/29 07:07:49;;;;;;;6.10;3.33;;;10.60;78.20;;;;;;6145552;23;20417;-79
2023/12/29 07:10:17;;;;;;;5.03;3.10;;;10.60;78.20;;;;;;6145449;23;20452;-79
2023/12/29 07:12:45;;;;;;;6.80;2.53;;;10.70;78.20;;;;;;6143624;23;20421;-79
2023/12/29 07:15:15;;;;;;;5.57;2.77;;;10.60;78.20;;;;;;6143701;23;20814;-79
2023/12/29 07:17:43;;;;;;;6.93;2.70;;;10.60;78.20;;;;;;6182802;23;20385;-79
2023/12/29 07:20:11;;;;;;;7.80;3.67;;;10.70;78.30;;;;;;6182312;23;20389;-79
2023/12/29 07:22:39;;;;;;;6.20;2.90;;;10.70;78.20;;;;;;6147604;23;20463;-79
2023/12/29 07:25:08;;;;;;;6.40;3.03;;;10.70;78.20;;;;;;6182917;23;20536;-79
2023/12/29 07:27:36;;;;;;;4.50;2.30;;;10.70;78.20;;;;;;6182443;23;20464;-79
2023/12/29 07:30:04;;;;;;;6.23;2.30;;;10.70;78.20;;;;;;6145998;23;20428;-79
2023/12/29 07:32:33;;;;;;;5.87;2.50;;;10.70;78.20;;;;;;6145348;23;20441;-79
2023/12/29 07:35:01;;;;;;;5.73;2.30;;;10.70;78.30;;;;;;6145270;23;20456;-79
2023/12/29 07:37:29;;;;;;;4.80;2.77;;;10.70;78.30;;;;;;6146251;23;20432;-79
2023/12/29 07:39:57;;;;;;;4.67;2.40;;;10.70;78.30;;;;;;6182830;23;20401;-82
2023/12/29 07:42:25;;;;;;;5.83;2.40;;;10.70;78.30;;;;;;6147822;23;20867;-79
2023/12/29 07:44:56;;;;;;;5.00;2.03;;;10.70;78.30;;;;;;6147799;23;20457;-79
2023/12/29 07:47:24;;;;;;;4.53;2.10;;;10.80;78.30;;;;;;6184050;23;20464;-79
2023/12/29 07:49:53;;;;;;;4.83;2.40;;;10.80;78.30;;;;;;6147883;23;20763;-79
2023/12/29 07:52:23;;;;;;;4.77;1.90;;;10.80;78.30;;;;;;6147458;23;20816;-79
2023/12/29 07:54:51;;;;;;;5.23;2.30;;;10.80;78.30;;;;;;6183697;23;20411;-79
2023/12/29 07:57:19;;;;;;;4.83;2.13;;;10.80;78.40;;;;;;6147938;23;20768;-79
2023/12/29 07:59:47;;;;;;;4.90;1.90;;;10.80;78.40;;;;;;6184502;23;20867;-79
2023/12/29 08:02:16;;;;;;;5.30;2.00;;;10.80;78.40;;;;;;6146284;23;20456;-79
2023/12/29 08:04:45;;;;;;;4.80;2.10;;;10.80;78.40;;;;;;6184348;23;20793;-79
2023/12/29 08:07:14;;;;;;;4.87;2.00;;;10.80;78.40;;;;;;6183419;23;20520;-79
2023/12/29 08:09:42;;;;;;;6.10;2.20;;;10.80;78.50;;;;;;6146978;23;20778;-79
2023/12/29 08:12:10;;;;;;;5.70;2.20;;;10.80;78.40;;;;;;6148947;23;20444;-79
2023/12/29 08:14:38;;;;;;;4.53;1.57;;;10.80;78.50;;;;;;6148236;23;20424;-79
2023/12/29 08:17:07;;;;;;;6.10;2.00;;;10.80;78.50;;;;;;6183854;23;20471;-80
2023/12/29 08:19:35;;;;;;;4.97;1.90;;;10.80;78.50;;;;;;6147872;23;20432;-80
2023/12/29 08:22:03;;;;;;;6.93;1.90;;;10.80;78.50;;;;;;6147750;23;20424;-79
2023/12/29 08:24:33;;;;;;;6.13;2.27;;;10.90;78.50;;;;;;6183785;23;20433;-80
2023/12/29 08:27:01;;;;;;;6.30;2.00;;;10.90;78.50;;;;;;6183379;23;20448;-79
2023/12/29 08:29:29;;;;;;;4.73;2.20;;;10.90;78.60;;;;;;6148211;23;20457;-79
2023/12/29 08:31:57;;;;;;;5.33;2.00;;;10.90;78.50;;;;;;6175753;23;20468;-80
2023/12/29 08:34:25;;;;;;;4.63;1.97;;;10.90;78.50;;;;;;6184663;23;20401;-79
2023/12/29 08:36:57;;;;;;;5.90;2.17;;;10.90;78.50;;;;;;6148266;23;20420;-79
2023/12/29 08:39:25;;;;;;;5.37;2.13;;;11.00;78.60;;;;;;6183399;23;20408;-79
2023/12/29 08:41:54;;;;;;;5.70;2.20;;;11.00;78.50;;;;;;6148201;23;20480;-79
2023/12/29 08:44:24;;;;;;;5.63;1.93;;;11.00;78.50;;;;;;6184096;23;20405;-79
2023/12/29 08:46:52;;;;;;;5.77;1.60;;;11.00;78.50;;;;;;6147999;23;20547;-79
2023/12/29 08:49:21;;;;;;;4.93;1.70;;;11.00;78.30;;;;;;6183062;23;20472;-79
2023/12/29 08:51:49;;;;;;;4.23;2.07;;;11.00;78.30;;;;;;6147915;23;20448;-79
2023/12/29 08:54:17;;;;;;;4.53;1.67;;;11.00;78.30;;;;;;6148851;23;20480;-80
2023/12/29 08:56:45;;;;;;;4.73;1.70;;;11.00;78.30;;;;;;6148168;23;20428;-79
2023/12/29 08:59:14;;;;;;;4.57;1.70;;;11.00;78.30;;;;;;6148204;23;20428;-80
2023/12/29 09:01:42;;;;;;;4.87;2.07;;;11.10;78.30;;;;;;6147409;23;20483;-79
2023/12/29 09:04:10;;;;;;;6.30;2.23;;;11.10;78.20;;;;;;6147325;23;20467;-79
2023/12/29 09:06:39;;;;;;;4.47;1.97;;;11.10;78.20;;;;;;6147430;23;20436;-80
2023/12/29 09:09:12;;;;;;;3.90;1.73;;;11.10;78.10;;;;;;6147850;23;20425;-79
2023/12/29 09:11:40;;;;;;;4.50;2.07;;;11.10;78.10;;;;;;6182463;23;20444;-79
2023/12/29 09:14:08;;;;;;;4.30;1.67;;;11.10;78.10;;;;;;6145989;23;20694;-79
2023/12/29 09:16:37;;;;;;;6.20;2.20;;;11.10;78.00;;;;;;6182579;23;20405;-79
2023/12/29 09:19:09;;;;;;;4.40;1.73;;;11.10;77.90;;;;;;6181592;23;20393;-79
2023/12/29 09:21:54;;;;;;;5.63;2.10;;;11.10;77.90;;;;;;6146886;23;20449;-79
2023/12/29 09:24:22;;;;;;;5.03;2.10;;;11.20;77.90;;;;;;6146993;23;20883;-79
2023/12/29 09:26:50;;;;;;;4.77;2.03;;;11.20;77.80;;;;;;6146410;23;20508;-79
2023/12/29 09:29:18;;;;;;;4.77;1.60;;;11.10;77.80;;;;;;6148041;23;20414;-79
2023/12/29 09:31:48;;;;;;;5.50;2.13;;;11.10;77.80;;;;;;6176053;23;20536;-79
2023/12/29 09:34:19;;;;;;;4.73;1.83;;;11.20;77.80;;;;;;6146302;23;20413;-79
2023/12/29 09:36:47;;;;;;;5.20;1.73;;;11.20;77.80;;;;;;6182324;23;20396;-79
2023/12/29 09:39:15;;;;;;;5.70;1.80;;;11.20;77.70;;;;;;6146721;23;20421;-79
2023/12/29 09:41:46;;;;;;;5.33;1.50;;;11.20;77.70;;;;;;6146354;23;20448;-79
2023/12/29 09:44:15;;;;;;;6.83;1.70;;;11.20;77.70;;;;;;6182953;23;20389;-78
2023/12/29 09:46:45;;;;;;;5.90;1.90;;;11.20;77.70;;;;;;6146626;23;20429;-79
2023/12/29 09:49:15;;;;;;;5.27;2.03;;;11.20;77.70;;;;;;6182241;23;20401;-79
2023/12/29 09:51:44;;;;;;;4.50;1.90;;;11.20;77.70;;;;;;6182516;23;20405;-79
2023/12/29 09:54:13;;;;;;;4.53;2.07;;;11.20;77.70;;;;;;6181662;23;20898;-79
2023/12/29 09:56:42;;;;;;;5.87;1.47;;;11.20;77.70;;;;;;6182751;23;20441;-79
2023/12/29 09:59:12;;;;;;;4.23;1.83;;;11.20;77.70;;;;;;6145784;23;20746;-79
2023/12/29 10:01:42;;;;;;;5.50;1.90;;;11.30;77.80;;;;;;6175971;23;20487;-79
2023/12/29 10:04:10;;;;;;;4.60;1.90;;;11.30;77.80;;;;;;6182310;23;20385;-79
2023/12/29 10:06:45;;;;;;;6.57;2.10;;;11.30;77.80;;;;;;6141660;23;20476;-79
2023/12/29 10:09:17;;;;;;;4.60;1.90;;;11.30;77.90;;;;;;6145286;23;20413;-79
2023/12/29 10:11:48;;;;;;;5.00;1.97;;;11.30;77.90;;;;;;6146613;23;20520;-79
2023/12/29 10:14:24;;;;;;;4.10;1.50;;;11.40;77.90;;;;;;6182533;23;20405;-79
2023/12/29 10:16:58;;;;;;;4.57;1.60;;;11.50;77.90;;;;;;6183064;23;20409;-79
2023/12/29 10:19:38;;;;;;;5.37;2.27;;;11.50;77.80;;;;;;6146297;23;20773;-79
2023/12/29 10:22:16;;;;;;;4.67;1.80;;;11.50;77.80;;;;;;6145344;23;20461;-78
2023/12/29 10:24:45;;;;;;;3.97;1.30;;;11.50;77.70;;;;;;6144837;23;20775;-79
2023/12/29 10:27:13;;;;;;;5.00;1.83;;;11.50;77.80;;;;;;6181056;23;20845;-79
2023/12/29 10:29:41;;;;;;;4.73;1.97;;;11.50;77.70;;;;;;6180401;23;20519;-79
2023/12/29 10:32:10;;;;;;;6.63;1.80;;;11.60;77.60;;;;;;6143959;23;20808;-79
2023/12/29 10:34:38;;;;;;;4.13;1.73;;;11.60;77.70;;;;;;6181413;23;20930;-79
2023/12/29 10:37:13;;;;;;;5.00;1.90;;;11.60;77.70;;;;;;6180508;23;20427;-80
2023/12/29 10:39:56;;;;;;;5.10;1.90;;;11.70;77.60;;;;;;6181303;23;20432;-80
2023/12/29 10:42:24;;;;;;;3.93;1.67;;;11.70;77.60;;;;;;6143844;23;20427;-79
2023/12/29 10:45:06;;;;;;;4.90;1.70;;;11.70;77.50;;;;;;6144036;23;20425;-79
2023/12/29 10:47:35;;;;;;;11.10;2.10;;;11.70;77.50;;;;;;6179642;23;20523;-79
2023/12/29 10:50:04;;;;;;;4.27;1.80;;;11.70;77.50;;;;;;6142360;23;20420;-78
2023/12/29 10:52:33;;;;;;;3.93;1.60;;;11.70;77.50;;;;;;6141587;23;20491;-79
2023/12/29 10:55:11;;;;;;;4.63;1.50;;;11.80;77.40;;;;;;6143339;23;20816;-79
2023/12/29 10:57:41;;;;;;;5.43;1.97;;;11.80;77.40;;;;;;6179660;23;20428;-79
2023/12/29 11:00:12;;;;;;;4.30;1.80;;;11.80;77.40;;;;;;6143111;23;20401;-79
2023/12/29 11:02:41;;;;;;;5.23;1.63;;;11.80;77.40;;;;;;6179385;23;20401;-79
2023/12/29 11:05:10;;;;;;;4.93;1.47;;;11.80;77.30;;;;;;6136547;23;20444;-78
2023/12/29 11:07:41;;;;;;;4.23;1.60;;;11.90;77.30;;;;;;6167711;23;20933;-78
2023/12/29 11:10:10;;;;;;;5.87;1.83;;;11.90;77.40;;;;;;6180987;23;20424;-78
2023/12/29 11:12:39;;;;;;;5.07;2.00;;;12.00;77.40;;;;;;6176488;23;20981;-78
2023/12/29 11:15:10;;;;;;;5.17;1.70;;;12.00;77.20;;;;;;6173267;23;20407;-78
2023/12/29 11:17:38;;;;;;;4.50;1.70;;;12.00;77.20;;;;;;6139010;23;20447;-78
2023/12/29 11:20:07;;;;;;;4.60;1.27;;;12.00;77.10;;;;;;6139769;23;20444;-78
2023/12/29 11:22:36;;;;;;;3.70;1.30;;;12.00;77.00;;;;;;6140600;23;20498;-78
2023/12/29 11:25:07;;;;;;;6.63;1.63;;;12.10;76.90;;;;;;6142390;23;20449;-78
2023/12/29 11:27:37;;;;;;;4.17;1.37;;;12.10;76.80;;;;;;6141882;23;20440;-78
2023/12/29 11:30:06;;;;;;;5.00;1.67;;;12.10;76.70;;;;;;6141218;23;20416;-78
2023/12/29 11:32:44;;;;;;;6.57;1.80;;;12.10;76.60;;;;;;6141165;23;20949;-79
2023/12/29 11:35:17;;;;;;;4.97;1.37;;;12.10;76.50;;;;;;6178307;23;20397;-78
2023/12/29 11:38:00;;;;;;;4.33;1.53;;;12.10;76.50;;;;;;6142702;23;20499;-78
2023/12/29 11:40:34;;;;;;;4.97;1.50;;;12.10;76.50;;;;;;6142584;23;20444;-78
2023/12/29 11:43:10;;;;;;;5.00;1.40;;;12.00;76.50;;;;;;6176599;23;20479;-78
2023/12/29 11:45:39;;;;;;;4.43;1.50;;;12.00;76.40;;;;;;6140749;23;20417;-78
2023/12/29 11:48:07;;;;;;;3.50;1.20;;;12.00;76.40;;;;;;6166721;23;20468;-78
2023/12/29 11:50:38;;;;;;;5.13;1.60;;;12.10;76.50;;;;;;6140865;23;20440;-78
2023/12/29 11:53:06;;;;;;;4.23;1.50;;;12.10;76.40;;;;;;6174521;23;20398;-78
2023/12/29 11:55:43;;;;;;;3.93;1.50;;;12.10;76.30;;;;;;6179733;23;20484;-78
2023/12/29 11:58:28;;;;;;;4.43;1.17;;;12.20;76.20;;;;;;6182296;23;20428;-79
2023/12/29 12:00:57;;;;;;;5.60;1.70;;;12.20;76.10;;;;;;6143351;23;20437;-78
2023/12/29 12:03:27;;;;;;;4.90;1.17;;;12.20;76.10;;;;;;6144535;23;20437;-79
2023/12/29 12:05:58;;;;;;;3.40;1.00;;;12.20;76.00;;;;;;6140823;23;20510;-78
2023/12/29 12:08:30;;;;;;;4.40;1.70;;;12.20;75.90;;;;;;6141699;23;20495;-78
2023/12/29 12:11:19;;;;;;;5.43;1.90;;;12.20;75.90;;;;;;6142727;23;20421;-78
2023/12/29 12:13:51;;;;;;;4.57;1.33;;;12.20;76.00;;;;;;6140335;23;20764;-78
2023/12/29 12:16:46;;;;;;;4.47;1.53;;;12.20;75.90;;;;;;6177560;23;20393;-78
2023/12/29 12:19:15;;;;;;;7.23;1.67;;;12.20;75.90;;;;;;6175000;23;20397;-78
2023/12/29 12:21:47;;;;;;;4.67;1.50;;;12.20;76.00;;;;;;6145098;23;20500;-78
2023/12/29 12:24:19;;;;;;;4.30;1.57;;;12.20;76.00;;;;;;6140268;23;20427;-78
2023/12/29 12:26:47;;;;;;;4.30;1.47;;;12.20;75.90;;;;;;6175310;23;20843;-78
2023/12/29 12:29:19;;;;;;;6.03;1.73;;;12.20;75.90;;;;;;6140259;23;20441;-78
2023/12/29 12:31:54;;;;;;;5.23;1.53;;;12.20;75.90;;;;;;6140914;23;20463;-78
2023/12/29 12:34:23;;;;;;;6.20;1.70;;;12.20;75.90;;;;;;6177664;23;20409;-78
2023/12/29 12:36:56;;;;;;;5.00;1.43;;;12.20;75.80;;;;;;6178448;23;20452;-78
2023/12/29 12:39:24;;;;;;;4.80;1.37;;;12.20;75.90;;;;;;6142561;23;20417;-79
2023/12/29 12:41:52;;;;;;;4.43;1.53;;;12.20;75.90;;;;;;6178783;23;20429;-79
2023/12/29 12:44:28;;;;;;;6.63;1.43;;;12.20;75.80;;;;;;6143043;23;20452;-78
2023/12/29 12:46:59;;;;;;;5.63;1.20;;;12.20;75.80;;;;;;6179461;23;20401;-79
2023/12/29 12:49:27;;;;;;;6.67;1.40;;;12.20;75.80;;;;;;6143189;23;20444;-78
2023/12/29 12:51:56;;;;;;;4.50;1.50;;;12.20;75.80;;;;;;6142655;23;20456;-79
2023/12/29 12:54:24;;;;;;;6.20;1.70;;;12.20;75.80;;;;;;6180003;23;20457;-78
2023/12/29 12:56:52;;;;;;;5.53;1.73;;;12.20;75.80;;;;;;6180924;23;20465;-79
2023/12/29 12:59:20;;;;;;;4.60;1.67;;;12.20;75.70;;;;;;6182875;23;20406;-79
2023/12/29 13:01:50;;;;;;;5.03;1.63;;;12.20;75.80;;;;;;6143708;23;20451;-80
2023/12/29 13:04:25;;;;;;;4.60;1.37;;;12.20;75.70;;;;;;6171237;23;20412;-79
2023/12/29 13:06:53;;;;;;;3.87;1.30;;;12.20;75.60;;;;;;6133994;23;20423;-79
2023/12/29 13:09:21;;;;;;;3.70;1.17;;;12.20;75.60;;;;;;6151616;23;20435;-81
2023/12/29 13:11:49;;;;;;;6.00;1.80;;;12.20;75.60;;;;;;6184319;23;20409;-80
2023/12/29 13:14:22;;;;;;;4.90;1.63;;;12.20;75.60;;;;;;6148644;23;20421;-80
2023/12/29 13:16:51;;;;;;;6.37;1.70;;;12.20;75.70;;;;;;6182516;23;20440;-80
2023/12/29 13:19:22;;;;;;;4.47;1.80;;;12.20;75.70;;;;;;6146806;23;20456;-80